Time;durP1;ratioP1;P1;durP2;ratioP2;P2;SDS_P1;SDS_P2;PMS_P1;PMS_P2;Temp;Humidity;BMP_temperature;BMP_pressure;BME280_temperature;BME280_humidity;BME280_pressure;Samples;Min_cycle;Max_cycle;Signal;HPM_P1;HPM_P2
2022/07/12 00:01:06;;;;;;;4.03;2.80;;;15.60;99.90;;;;;;4992841;28;20274;-90
2022/07/12 00:03:35;;;;;;;5.73;3.27;;;15.60;99.90;;;;;;4992575;28;20290;-91
2022/07/12 00:06:01;;;;;;;5.17;2.70;;;15.60;99.90;;;;;;5007181;28;20293;-91
2022/07/12 00:08:27;;;;;;;6.63;3.17;;;15.50;99.90;;;;;;4982643;28;20258;-91
2022/07/12 00:10:53;;;;;;;4.70;2.47;;;15.50;99.90;;;;;;4984296;28;20224;-92
2022/07/12 00:13:19;;;;;;;5.33;3.37;;;15.50;99.90;;;;;;5007572;28;20254;-90
2022/07/12 00:15:45;;;;;;;5.27;3.20;;;15.50;99.90;;;;;;4993858;28;20211;-91
2022/07/12 00:18:11;;;;;;;4.80;3.10;;;15.50;99.90;;;;;;5006270;28;20583;-91
2022/07/12 00:20:37;;;;;;;8.10;3.70;;;15.50;99.90;;;;;;5004958;28;20220;-91
2022/07/12 00:23:04;;;;;;;5.20;3.03;;;15.50;99.90;;;;;;5006159;28;20660;-93
2022/07/12 00:25:30;;;;;;;4.43;2.70;;;15.60;99.90;;;;;;5007122;28;20216;-91
2022/07/12 00:27:56;;;;;;;6.17;3.67;;;15.60;99.90;;;;;;4990348;28;20180;-89
2022/07/12 00:30:23;;;;;;;4.30;3.20;;;15.50;99.90;;;;;;5008066;28;20216;-89
2022/07/12 00:32:49;;;;;;;7.53;3.70;;;15.50;99.90;;;;;;4992696;28;20244;-92
2022/07/12 00:35:14;;;;;;;7.30;3.73;;;15.50;99.90;;;;;;5006728;28;20235;-89
2022/07/12 00:37:41;;;;;;;5.87;4.00;;;15.50;99.90;;;;;;4993434;28;20226;-89
2022/07/12 00:40:09;;;;;;;4.93;3.63;;;15.50;99.90;;;;;;4994260;28;20186;-89
2022/07/12 00:42:36;;;;;;;8.10;3.90;;;15.50;99.90;;;;;;5009404;28;20239;-88
2022/07/12 00:45:03;;;;;;;10.27;3.57;;;15.50;99.90;;;;;;4991751;28;20227;-90
2022/07/12 00:47:36;;;;;;;5.83;4.20;;;15.50;99.90;;;;;;5008556;28;20220;-88
2022/07/12 00:50:19;;;;;;;8.50;3.23;;;15.50;99.90;;;;;;4992973;28;20220;-88
2022/07/12 00:52:48;;;;;;;6.23;3.47;;;15.60;99.90;;;;;;5005382;28;20576;-89
2022/07/12 00:55:14;;;;;;;7.27;3.80;;;15.50;99.90;;;;;;4990572;28;20179;-88
2022/07/12 00:57:43;;;;;;;7.13;3.00;;;15.50;99.90;;;;;;4990928;28;20235;-88
2022/07/12 01:00:11;;;;;;;5.80;3.93;;;15.50;99.90;;;;;;4989655;28;20297;-93
2022/07/12 01:02:37;;;;;;;4.20;3.07;;;15.50;99.90;;;;;;4990285;28;20227;-88
2022/07/12 01:05:05;;;;;;;5.50;3.40;;;15.50;99.90;;;;;;4990206;28;20318;-89
2022/07/12 01:07:31;;;;;;;5.70;4.03;;;15.50;99.90;;;;;;4988834;28;20199;-92
2022/07/12 01:09:58;;;;;;;5.43;3.43;;;15.50;99.90;;;;;;4988156;28;20199;-89
2022/07/12 01:12:24;;;;;;;11.43;3.97;;;15.50;99.90;;;;;;4987241;28;20689;-89
2022/07/12 01:14:51;;;;;;;14.13;3.90;;;15.50;99.90;;;;;;4987296;28;20252;-90
2022/07/12 01:17:21;;;;;;;35.20;4.57;;;15.40;99.90;;;;;;4988384;28;20282;-89
2022/07/12 01:19:48;;;;;;;42.50;5.27;;;15.50;99.90;;;;;;5006946;28;20279;-88
2022/07/12 01:22:17;;;;;;;11.37;5.77;;;15.50;99.90;;;;;;5006515;28;20183;-88
2022/07/12 01:24:43;;;;;;;29.77;5.37;;;15.50;99.90;;;;;;4987756;28;20351;-88
2022/07/12 01:27:10;;;;;;;25.33;5.13;;;15.50;99.90;;;;;;4986393;28;20208;-90
2022/07/12 01:29:36;;;;;;;13.93;4.27;;;15.50;99.90;;;;;;4987375;28;20620;-91
2022/07/12 01:32:24;;;;;;;44.10;5.87;;;15.40;99.90;;;;;;4985941;28;20216;-89
2022/07/12 01:34:51;;;;;;;20.40;3.90;;;15.40;99.90;;;;;;4986426;28;20248;-88
2022/07/12 01:37:18;;;;;;;33.87;4.23;;;15.40;99.90;;;;;;4986843;28;20196;-88
2022/07/12 01:39:45;;;;;;;8.57;3.80;;;15.40;99.90;;;;;;4985938;28;20324;-88
2022/07/12 01:42:11;;;;;;;7.77;4.87;;;15.40;99.90;;;;;;4985734;28;20223;-89
2022/07/12 01:44:36;;;;;;;31.93;5.77;;;15.40;99.90;;;;;;4986495;28;20232;-88
2022/07/12 01:47:03;;;;;;;67.37;6.20;;;15.40;99.90;;;;;;5002263;28;21049;-88
2022/07/12 01:49:29;;;;;;;44.30;6.33;;;15.40;99.90;;;;;;4970667;28;20646;-90
2022/07/12 01:51:58;;;;;;;30.00;5.90;;;15.50;99.90;;;;;;4970820;28;20196;-90
2022/07/12 01:54:25;;;;;;;44.10;4.93;;;15.40;99.90;;;;;;4986707;28;20224;-88
2022/07/12 01:56:54;;;;;;;75.80;7.63;;;15.40;99.90;;;;;;4987697;28;20709;-91
2022/07/12 01:59:21;;;;;;;95.63;6.13;;;15.30;99.90;;;;;;5001918;28;20228;-91
2022/07/12 02:01:48;;;;;;;42.90;5.60;;;15.40;99.90;;;;;;4989477;28;20350;-88
2022/07/12 02:04:18;;;;;;;88.67;5.07;;;15.30;99.90;;;;;;4991409;28;20184;-87
2022/07/12 02:06:45;;;;;;;12.23;3.40;;;15.20;99.90;;;;;;4991365;28;20227;-91
2022/07/12 02:09:12;;;;;;;20.80;4.40;;;15.20;99.90;;;;;;5004813;28;20239;-92
2022/07/12 02:11:38;;;;;;;31.27;3.93;;;15.20;99.90;;;;;;4991838;28;20227;-90
2022/07/12 02:14:03;;;;;;;28.03;3.80;;;15.20;99.90;;;;;;4989748;28;20247;-88
2022/07/12 02:16:29;;;;;;;9.20;3.50;;;15.20;99.90;;;;;;4974253;28;20211;-87
2022/07/12 02:18:55;;;;;;;32.27;4.83;;;15.20;99.90;;;;;;4990522;28;20285;-87
2022/07/12 02:21:21;;;;;;;44.13;4.73;;;15.20;99.90;;;;;;4989596;28;20615;-88
2022/07/12 02:23:46;;;;;;;36.07;3.70;;;15.30;99.90;;;;;;4974010;28;20220;-87
2022/07/12 02:26:12;;;;;;;38.07;4.17;;;15.20;99.90;;;;;;4991446;28;20231;-93
2022/07/12 02:28:38;;;;;;;18.33;3.67;;;15.20;99.90;;;;;;4990100;28;20560;-90
2022/07/12 02:31:05;;;;;;;5.87;4.07;;;15.10;99.90;;;;;;4974006;28;20203;-88
2022/07/12 02:33:30;;;;;;;15.33;5.10;;;15.10;99.90;;;;;;4973938;28;20223;-88
2022/07/12 02:35:56;;;;;;;27.73;4.87;;;15.10;99.90;;;;;;4990407;28;20224;-88
2022/07/12 02:38:22;;;;;;;27.43;4.67;;;15.00;99.90;;;;;;4989979;28;20228;-88
2022/07/12 02:40:53;;;;;;;13.83;4.37;;;15.00;99.90;;;;;;4972269;28;20243;-92
2022/07/12 02:43:27;;;;;;;10.57;4.17;;;14.90;99.90;;;;;;4989600;28;20180;-89
2022/07/12 02:45:57;;;;;;;10.93;3.50;;;15.00;99.90;;;;;;5006312;28;20218;-86
2022/07/12 02:48:23;;;;;;;17.03;3.50;;;15.00;99.90;;;;;;4990541;28;20227;-92
2022/07/12 02:50:49;;;;;;;18.63;3.97;;;15.10;99.90;;;;;;4988795;28;20224;-91
2022/07/12 02:53:15;;;;;;;5.53;2.90;;;15.10;99.90;;;;;;4985851;28;20709;-90
2022/07/12 02:55:41;;;;;;;9.80;2.80;;;15.10;99.90;;;;;;4958815;28;20274;-88
2022/07/12 02:58:07;;;;;;;5.13;3.47;;;15.20;99.90;;;;;;4986438;28;20192;-92
2022/07/12 03:00:34;;;;;;;12.33;3.40;;;15.20;99.90;;;;;;4986433;28;20219;-88
2022/07/12 03:03:03;;;;;;;13.27;3.10;;;15.20;99.90;;;;;;5000506;28;20227;-88
2022/07/12 03:05:29;;;;;;;4.23;2.67;;;15.20;99.90;;;;;;4978938;28;20232;-93
2022/07/12 03:07:54;;;;;;;22.03;4.47;;;15.20;99.90;;;;;;5003428;28;20431;-91
2022/07/12 03:10:20;;;;;;;12.43;2.73;;;15.10;99.90;;;;;;4987713;28;20247;-89
2022/07/12 03:12:46;;;;;;;14.00;2.80;;;15.10;99.90;;;;;;4986782;28;20206;-90
2022/07/12 03:15:12;;;;;;;6.57;2.77;;;15.10;99.90;;;;;;4987534;28;20261;-88
2022/07/12 03:17:38;;;;;;;12.87;3.63;;;15.20;99.90;;;;;;5001761;28;20231;-88
2022/07/12 03:20:11;;;;;;;16.10;3.53;;;15.10;99.90;;;;;;4987933;28;20224;-93
2022/07/12 03:22:37;;;;;;;7.00;2.97;;;15.20;99.90;;;;;;4988931;28;20307;-90
2022/07/12 03:25:03;;;;;;;8.00;3.37;;;15.20;99.90;;;;;;4993045;28;20228;-91
2022/07/12 03:27:31;;;;;;;14.10;2.63;;;15.10;99.90;;;;;;5004901;28;20223;-90
2022/07/12 03:29:57;;;;;;;5.20;2.90;;;15.10;99.90;;;;;;4989503;28;20247;-92
2022/07/12 03:32:23;;;;;;;10.93;2.77;;;15.10;99.90;;;;;;4987817;28;20234;-90
2022/07/12 03:34:49;;;;;;;18.67;2.60;;;15.10;99.90;;;;;;4972903;28;20216;-89
2022/07/12 03:37:15;;;;;;;20.37;3.67;;;15.10;99.90;;;;;;4989159;28;20553;-85
2022/07/12 03:39:40;;;;;;;7.57;2.23;;;15.10;99.90;;;;;;4989886;28;20225;-90
2022/07/12 03:42:06;;;;;;;10.97;2.77;;;15.00;99.90;;;;;;4987961;28;20224;-89
2022/07/12 03:44:33;;;;;;;16.17;2.83;;;15.00;99.90;;;;;;5004522;28;20216;-88
2022/07/12 03:46:59;;;;;;;9.40;3.23;;;15.00;99.90;;;;;;4988248;28;20743;-90
2022/07/12 03:49:25;;;;;;;11.03;2.23;;;15.00;99.90;;;;;;5003606;28;20275;-88
2022/07/12 03:51:51;;;;;;;6.40;2.10;;;15.10;99.90;;;;;;5003227;28;20283;-91
2022/07/12 03:54:17;;;;;;;23.93;3.33;;;15.10;99.90;;;;;;4987635;28;20685;-88
2022/07/12 03:59:27;;;;;;;4.23;2.77;;;15.10;99.90;;;;;;4973037;28;20239;-86
2022/07/12 04:01:53;;;;;;;18.17;3.33;;;15.20;99.90;;;;;;4986292;28;20720;-89
2022/07/12 04:04:18;;;;;;;8.37;2.30;;;15.20;99.90;;;;;;4986060;28;20192;-90
2022/07/12 04:06:45;;;;;;;5.67;1.73;;;15.20;99.90;;;;;;4979207;28;21164;-88
2022/07/12 04:09:12;;;;;;;14.97;2.00;;;15.20;99.90;;;;;;4987288;28;20622;-89
2022/07/12 04:11:37;;;;;;;14.07;2.30;;;15.20;99.90;;;;;;5002646;28;20223;-91
2022/07/12 04:14:03;;;;;;;3.23;1.90;;;15.30;99.90;;;;;;4969633;28;20720;-88
2022/07/12 04:16:32;;;;;;;33.70;3.83;;;15.30;99.90;;;;;;4986109;28;20526;-90
2022/07/12 04:18:58;;;;;;;9.70;2.33;;;15.40;99.90;;;;;;4986671;28;20555;-90
2022/07/12 04:21:24;;;;;;;6.10;2.07;;;15.40;99.90;;;;;;4987314;28;20231;-89
2022/07/12 04:23:50;;;;;;;12.80;3.10;;;15.40;99.90;;;;;;5001355;28;20224;-88
2022/07/12 04:26:16;;;;;;;2.90;2.00;;;15.50;99.90;;;;;;4984372;28;20715;-89
2022/07/12 04:28:42;;;;;;;4.37;2.30;;;15.50;99.90;;;;;;4984008;28;20226;-88
2022/07/12 04:31:09;;;;;;;5.57;2.00;;;15.50;99.90;;;;;;4984881;28;20223;-92
2022/07/12 04:33:35;;;;;;;9.37;2.90;;;15.50;99.90;;;;;;4983469;28;20215;-90
2022/07/12 04:36:01;;;;;;;4.03;2.10;;;15.60;99.90;;;;;;4986070;28;20238;-91
2022/07/12 04:38:27;;;;;;;8.07;2.17;;;15.60;99.90;;;;;;4989041;28;20227;-91
2022/07/12 04:40:52;;;;;;;2.27;1.93;;;15.60;99.90;;;;;;4989764;28;20597;-91
2022/07/12 04:43:18;;;;;;;5.17;2.97;;;15.70;99.90;;;;;;4969105;28;20203;-91
2022/07/12 04:45:44;;;;;;;3.43;3.00;;;15.70;99.90;;;;;;4984538;28;20226;-89
2022/07/12 04:48:11;;;;;;;5.60;2.20;;;15.70;99.90;;;;;;4968651;28;20648;-90
2022/07/12 04:50:37;;;;;;;6.23;2.73;;;15.70;99.90;;;;;;5001547;28;20335;-93
2022/07/12 04:53:02;;;;;;;4.17;2.30;;;15.70;99.90;;;;;;4984370;28;20220;-89
2022/07/12 04:55:28;;;;;;;3.90;2.00;;;15.90;99.90;;;;;;4986131;28;20196;-92
2022/07/12 04:57:54;;;;;;;3.40;2.23;;;15.90;99.90;;;;;;4988652;28;20191;-91
2022/07/12 05:00:21;;;;;;;3.23;2.17;;;15.80;99.90;;;;;;4987169;28;20219;-87
2022/07/12 05:02:46;;;;;;;4.07;2.13;;;15.70;99.90;;;;;;4988626;28;20220;-90
2022/07/12 05:05:12;;;;;;;3.73;2.20;;;15.80;99.90;;;;;;5002356;28;20274;-90
2022/07/12 05:07:38;;;;;;;2.83;2.57;;;15.90;99.90;;;;;;4984973;28;20700;-92
2022/07/12 05:10:04;;;;;;;3.10;2.00;;;16.00;99.90;;;;;;4987784;28;20206;-91
2022/07/12 05:12:30;;;;;;;3.13;2.27;;;16.00;99.90;;;;;;4964791;28;20221;-92
2022/07/12 05:14:56;;;;;;;2.30;1.77;;;16.00;99.90;;;;;;4983854;28;20240;-92
2022/07/12 05:17:22;;;;;;;4.00;2.47;;;16.10;99.90;;;;;;4966031;28;20223;-90
2022/07/12 05:19:52;;;;;;;6.73;2.37;;;16.20;99.90;;;;;;5001340;28;20223;-94
2022/07/12 05:22:20;;;;;;;3.53;2.40;;;16.30;99.90;;;;;;4985986;28;20668;-93
2022/07/12 05:24:46;;;;;;;3.33;1.73;;;16.50;99.90;;;;;;4985368;28;20270;-93
2022/07/12 05:27:12;;;;;;;3.73;2.20;;;16.50;99.90;;;;;;4988195;28;20219;-94
2022/07/12 05:29:40;;;;;;;3.93;2.53;;;16.60;99.90;;;;;;5006667;28;20220;-89
2022/07/12 05:32:06;;;;;;;2.53;2.00;;;16.70;99.90;;;;;;5005040;28;20307;-91
2022/07/12 05:34:39;;;;;;;4.83;3.27;;;17.00;99.90;;;;;;5007383;28;20188;-92
2022/07/12 05:37:10;;;;;;;8.03;2.93;;;17.70;99.90;;;;;;4992267;28;20246;-94
2022/07/12 05:39:36;;;;;;;4.00;2.67;;;18.40;99.90;;;;;;4992629;28;20227;-93
2022/07/12 05:42:05;;;;;;;5.13;2.73;;;18.90;99.90;;;;;;4982281;28;20235;-92
2022/07/12 05:44:30;;;;;;;2.67;1.70;;;18.90;99.90;;;;;;4993631;28;20266;-93
2022/07/12 05:46:56;;;;;;;1.33;1.23;;;19.30;99.90;;;;;;4967481;28;20220;-95
2022/07/12 05:49:22;;;;;;;1.67;1.37;;;20.20;99.90;;;;;;4991359;28;20295;-93
2022/07/12 05:54:32;;;;;;;2.33;2.00;;;21.00;99.90;;;;;;4997202;28;20227;-90
2022/07/12 05:56:58;;;;;;;2.57;1.90;;;21.80;99.90;;;;;;4973339;28;20238;-94
2022/07/12 05:59:24;;;;;;;2.30;1.53;;;22.10;99.90;;;;;;5007185;28;20756;-96
2022/07/12 06:01:50;;;;;;;3.37;1.70;;;21.50;99.90;;;;;;4991097;28;20235;-91
2022/07/12 06:04:16;;;;;;;1.93;1.77;;;21.50;99.90;;;;;;4988568;28;20217;-91
2022/07/12 06:06:41;;;;;;;3.20;1.57;;;21.50;99.90;;;;;;4989087;28;20266;-92
2022/07/12 06:09:07;;;;;;;2.90;2.10;;;21.50;99.90;;;;;;4988515;28;20220;-93
2022/07/12 06:11:33;;;;;;;2.20;1.90;;;21.50;99.90;;;;;;4972515;28;20216;-95
2022/07/12 06:13:59;;;;;;;3.20;2.10;;;21.20;99.90;;;;;;4971782;28;20330;-92
2022/07/12 06:16:25;;;;;;;2.07;1.57;;;21.40;99.90;;;;;;4988949;28;20254;-93
2022/07/12 06:18:50;;;;;;;2.77;1.53;;;21.70;99.90;;;;;;4973076;28;20910;-94
2022/07/12 06:21:16;;;;;;;3.97;2.23;;;22.10;99.90;;;;;;4991463;28;20243;-95
2022/07/12 06:23:42;;;;;;;2.27;1.40;;;22.20;99.90;;;;;;4988420;28;20240;-94
2022/07/12 06:26:07;;;;;;;2.13;1.93;;;22.80;99.90;;;;;;4989549;28;20262;-91
2022/07/12 06:28:33;;;;;;;3.07;2.07;;;22.80;99.90;;;;;;4990344;28;20206;-90
2022/07/12 06:31:00;;;;;;;4.20;2.63;;;22.60;99.90;;;;;;5005532;28;20779;-90
2022/07/12 06:33:26;;;;;;;4.07;1.90;;;22.60;99.90;;;;;;4989582;28;20290;-92
2022/07/12 06:35:52;;;;;;;2.13;1.73;;;22.50;99.90;;;;;;4987701;28;20330;-93
2022/07/12 06:38:18;;;;;;;2.38;2.00;;;21.70;99.90;;;;;;4989634;28;20231;-94
2022/07/12 06:40:46;;;;;;;3.00;1.80;;;21.70;99.90;;;;;;4974293;28;20649;-95
2022/07/12 06:43:14;;;;;;;2.77;2.07;;;21.80;99.90;;;;;;4990949;28;20191;-95
2022/07/12 06:45:43;;;;;;;2.53;1.97;;;21.90;99.90;;;;;;4979912;28;20600;-94
2022/07/12 06:48:09;;;;;;;3.05;1.75;;;21.70;99.90;;;;;;4990828;28;20266;-93
2022/07/12 06:50:35;;;;;;;5.73;2.20;;;22.20;99.90;;;;;;4988142;28;20304;-93
2022/07/12 06:53:01;;;;;;;2.28;2.05;;;23.30;99.90;;;;;;4983375;28;21014;-90
2022/07/12 06:55:27;;;;;;;2.88;2.30;;;23.50;99.90;;;;;;4990859;28;20279;-95
2022/07/12 06:57:56;;;;;;;2.47;2.28;;;23.80;99.90;;;;;;4991259;28;20195;-95
2022/07/12 07:00:22;;;;;;;2.47;1.80;;;24.80;99.90;;;;;;4996738;28;20339;-95
2022/07/12 07:02:48;;;;;;;2.33;2.13;;;25.50;99.90;;;;;;5003624;28;20756;-95
2022/07/12 07:05:15;;;;;;;4.10;1.88;;;25.50;99.90;;;;;;5004004;28;20255;-94
2022/07/12 07:07:41;;;;;;;2.00;1.80;;;24.70;99.90;;;;;;4988829;28;20243;-94
2022/07/12 07:10:07;;;;;;;3.50;2.45;;;24.90;99.90;;;;;;5004841;28;20191;-94
2022/07/12 07:12:33;;;;;;;3.03;2.22;;;24.90;99.90;;;;;;5003634;28;20232;-94
2022/07/12 07:14:59;;;;;;;3.03;2.22;;;23.30;99.90;;;;;;5003589;28;20247;-95
2022/07/12 07:17:25;;;;;;;3.53;2.10;;;22.70;99.90;;;;;;4989851;28;20250;-95
2022/07/12 07:19:55;;;;;;;2.83;2.50;;;22.80;99.90;;;;;;4968234;28;20737;-94
2022/07/12 07:22:21;;;;;;;3.15;2.65;;;22.40;99.90;;;;;;4960144;28;20618;-94
2022/07/12 07:24:49;;;;;;;2.90;2.70;;;22.20;99.90;;;;;;4988098;28;20195;-93
2022/07/12 07:27:17;;;;;;;2.47;1.90;;;22.20;99.90;;;;;;4989162;28;20315;-96
2022/07/12 07:32:34;;;;;;;2.75;2.10;;;23.20;99.90;;;;;;4988297;28;20224;-94
2022/07/12 07:35:00;;;;;;;2.30;2.00;;;23.30;99.90;;;;;;4989789;28;20307;-94
2022/07/12 07:37:26;;;;;;;2.42;2.22;;;23.30;99.90;;;;;;5004912;28;20192;-95
2022/07/12 07:39:51;;;;;;;3.90;2.80;;;23.10;99.90;;;;;;4972425;28;20184;-94
2022/07/12 07:42:17;;;;;;;3.53;2.65;;;22.90;99.90;;;;;;4989542;28;20677;-94
2022/07/12 07:44:43;;;;;;;2.78;2.25;;;23.10;99.90;;;;;;4986137;28;20317;-96
2022/07/12 07:47:09;;;;;;;5.90;2.53;;;23.80;99.90;;;;;;4988212;28;21094;-96
2022/07/12 07:49:34;;;;;;;4.00;2.80;;;24.60;99.90;;;;;;5001187;28;20727;-94
2022/07/12 07:52:00;;;;;;;3.08;2.78;;;24.40;99.90;;;;;;5004082;28;20287;-95
2022/07/12 07:54:26;;;;;;;3.38;2.83;;;24.30;99.90;;;;;;4972346;28;20250;-95
2022/07/12 07:56:51;;;;;;;3.47;2.53;;;24.00;99.90;;;;;;4974402;28;20390;-96
2022/07/12 07:59:17;;;;;;;4.18;2.53;;;23.80;99.90;;;;;;4998642;28;20311;-96
2022/07/12 08:01:53;;;;;;;2.85;2.42;;;23.90;99.90;;;;;;5012894;28;20216;-95
2022/07/12 08:04:30;;;;;;;4.18;2.92;;;24.30;99.90;;;;;;4990535;28;20180;-95
2022/07/12 08:06:58;;;;;;;5.28;2.78;;;24.80;99.90;;;;;;4999409;28;21203;-92
2022/07/12 08:09:26;;;;;;;4.63;2.72;;;26.10;99.90;;;;;;4999447;28;20247;-91
2022/07/12 08:11:52;;;;;;;5.68;3.53;;;27.10;99.90;;;;;;5006317;28;20685;-94
2022/07/12 08:14:20;;;;;;;3.70;3.03;;;27.90;99.90;;;;;;4970257;28;20245;-93
2022/07/12 08:16:46;;;;;;;3.08;2.78;;;28.40;99.90;;;;;;4972737;28;20242;-94
2022/07/12 08:19:12;;;;;;;4.75;2.90;;;29.80;99.90;;;;;;4986668;28;20200;-93
2022/07/12 08:21:37;;;;;;;2.97;2.75;;;29.40;99.90;;;;;;4986376;28;20220;-93
2022/07/12 08:24:03;;;;;;;3.53;3.08;;;28.30;99.90;;;;;;4988158;28;20220;-92
2022/07/12 08:26:29;;;;;;;3.53;3.20;;;28.60;99.90;;;;;;4970019;28;20702;-92
2022/07/12 08:28:55;;;;;;;3.25;2.95;;;29.40;99.90;;;;;;4994283;28;20310;-94
2022/07/12 08:31:21;;;;;;;3.45;3.15;;;29.00;99.90;;;;;;4989241;28;20199;-96
2022/07/12 08:33:47;;;;;;;3.33;3.00;;;30.30;99.90;;;;;;5005475;28;20184;-93
2022/07/12 08:36:13;;;;;;;3.25;2.95;;;30.60;99.90;;;;;;4994421;28;20226;-93
2022/07/12 08:38:41;;;;;;;4.63;2.80;;;31.60;99.90;;;;;;4989448;28;20227;-93
2022/07/12 08:41:09;;;;;;;5.28;3.30;;;31.70;99.90;;;;;;4987067;28;20291;-92
2022/07/12 08:43:35;;;;;;;3.67;3.30;;;31.50;99.90;;;;;;5001735;28;20339;-92
2022/07/12 08:46:10;;;;;;;3.35;3.08;;;30.80;99.90;;;;;;4986471;28;20216;-93
2022/07/12 08:48:36;;;;;;;4.00;3.15;;;30.00;99.90;;;;;;4989574;28;20609;-93
2022/07/12 08:51:09;;;;;;;5.28;3.60;;;29.50;99.90;;;;;;4987788;28;20227;-92
2022/07/12 08:53:40;;;;;;;5.65;3.70;;;30.40;99.90;;;;;;4989152;28;20330;-96
2022/07/12 08:56:37;;;;;;;3.88;3.58;;;31.10;99.90;;;;;;4986912;28;20227;-94
2022/07/12 08:59:23;;;;;;;4.97;3.05;;;32.00;99.90;;;;;;4997484;28;20560;-95
2022/07/12 09:05:07;;;;;;;3.75;3.22;;;33.10;99.90;;;;;;4987240;28;20696;-95
2022/07/12 09:07:35;;;;;;;4.30;3.90;;;33.10;99.90;;;;;;4985775;28;20622;-94
2022/07/12 09:10:09;;;;;;;4.45;3.85;;;32.60;99.90;;;;;;5005702;28;20183;-95
2022/07/12 09:12:35;;;;;;;4.80;3.78;;;32.70;99.90;;;;;;4995148;28;20215;-94
2022/07/12 09:15:14;;;;;;;4.47;4.07;;;32.30;99.90;;;;;;5000052;28;20734;-94
2022/07/12 09:17:46;;;;;;;3.80;3.38;;;32.40;99.90;;;;;;4992918;28;20762;-93
2022/07/12 09:20:13;;;;;;;4.03;3.63;;;33.40;99.90;;;;;;4993631;28;20310;-95
2022/07/12 09:23:02;;;;;;;4.55;4.05;;;33.70;99.90;;;;;;4993280;28;20258;-95
2022/07/12 09:25:28;;;;;;;7.30;3.83;;;33.40;99.90;;;;;;5010249;28;20246;-94
2022/07/12 09:27:57;;;;;;;6.28;3.80;;;32.90;99.90;;;;;;5009311;28;20457;-94
2022/07/12 09:30:28;;;;;;;4.85;4.15;;;33.90;99.90;;;;;;4993120;28;20289;-94
2022/07/12 09:38:24;;;;;;;8.27;4.55;;;31.00;99.90;;;;;;4994270;28;20673;-95
2022/07/12 09:40:50;;;;;;;4.95;4.40;;;30.10;99.90;;;;;;4992419;28;20223;-93
2022/07/12 09:43:18;;;;;;;5.72;4.47;;;30.70;99.90;;;;;;5009237;28;20246;-93
2022/07/12 09:45:47;;;;;;;4.88;4.38;;;31.60;99.90;;;;;;4993551;28;20594;-93
2022/07/12 09:48:13;;;;;;;5.40;4.35;;;31.20;99.90;;;;;;4992321;28;20282;-93
2022/07/12 09:50:39;;;;;;;4.68;4.18;;;30.30;99.90;;;;;;4976657;28;20631;-91
2022/07/12 09:53:09;;;;;;;4.80;4.03;;;30.80;99.90;;;;;;4993243;28;20217;-94
2022/07/12 09:55:37;;;;;;;8.35;4.40;;;31.00;99.90;;;;;;4994424;28;20223;-91
2022/07/12 09:58:08;;;;;;;4.53;3.95;;;31.00;99.90;;;;;;5008567;28;20211;-93
2022/07/12 10:00:36;;;;;;;5.20;3.88;;;31.60;99.90;;;;;;4999468;28;20219;-93
2022/07/12 10:03:04;;;;;;;8.50;4.40;;;32.00;99.90;;;;;;5007754;28;20289;-94
2022/07/12 10:05:32;;;;;;;5.82;4.55;;;30.90;99.90;;;;;;5007988;28;20238;-88
2022/07/12 10:07:58;;;;;;;6.88;4.78;;;30.50;99.90;;;;;;5007790;28;20331;-92
2022/07/12 10:10:25;;;;;;;6.30;4.57;;;29.80;99.90;;;;;;4991358;28;20196;-92
2022/07/12 10:12:51;;;;;;;7.13;4.82;;;29.40;99.90;;;;;;4991861;28;20363;-93
2022/07/12 10:15:20;;;;;;;5.22;4.60;;;29.50;99.90;;;;;;4975426;28;20247;-92
2022/07/12 10:17:55;;;;;;;6.22;4.13;;;30.10;99.90;;;;;;4988385;28;20224;-92
2022/07/12 10:20:23;;;;;;;6.90;4.68;;;30.80;99.90;;;;;;4981900;28;20285;-93
2022/07/12 10:22:52;;;;;;;7.57;5.10;;;30.90;99.90;;;;;;4987571;28;20216;-93
2022/07/12 10:25:31;;;;;;;6.68;5.30;;;30.60;99.90;;;;;;4989292;28;20230;-91
2022/07/12 10:27:58;;;;;;;6.60;5.10;;;31.20;99.90;;;;;;4989729;28;20226;-93
2022/07/12 10:30:24;;;;;;;6.38;5.10;;;30.70;99.90;;;;;;4987243;28;20224;-92
2022/07/12 10:32:53;;;;;;;6.10;4.80;;;30.30;99.90;;;;;;4987216;28;20278;-94
2022/07/12 10:35:25;;;;;;;8.02;5.35;;;29.30;99.90;;;;;;5003970;28;20736;-95
2022/07/12 10:38:12;;;;;;;5.97;4.70;;;29.40;99.90;;;;;;4989339;28;20216;-95
2022/07/12 10:40:44;;;;;;;6.93;5.07;;;29.40;99.90;;;;;;4988677;28;20223;-93
2022/07/12 10:43:10;;;;;;;7.35;5.38;;;29.40;99.90;;;;;;4989915;28;20180;-96
2022/07/12 10:45:38;;;;;;;5.93;4.72;;;29.40;99.90;;;;;;4984247;28;20240;-95
2022/07/12 10:48:18;;;;;;;5.68;4.93;;;29.50;99.90;;;;;;4986759;28;20657;-95
2022/07/12 10:50:55;;;;;;;5.70;4.72;;;30.10;99.90;;;;;;4969999;28;20220;-93
2022/07/12 10:53:33;;;;;;;7.72;5.32;;;30.30;99.90;;;;;;4979577;28;20215;-95
2022/07/12 10:56:14;;;;;;;5.82;4.35;;;29.70;99.90;;;;;;4989589;28;20633;-95
2022/07/12 10:58:41;;;;;;;5.97;4.00;;;29.60;99.90;;;;;;4990996;28;20671;-95
2022/07/12 11:01:12;;;;;;;5.65;4.25;;;30.30;99.90;;;;;;4992599;28;20196;-95
2022/07/12 11:03:47;;;;;;;4.60;3.75;;;30.50;99.90;;;;;;4981497;28;20324;-92
2022/07/12 11:06:21;;;;;;;5.78;4.07;;;29.80;99.90;;;;;;4965850;28;20294;-89
2022/07/12 11:08:52;;;;;;;6.45;4.80;;;29.70;99.90;;;;;;4970947;28;20220;-90
2022/07/12 11:11:18;;;;;;;5.47;4.75;;;28.80;99.90;;;;;;4968086;28;20228;-90
2022/07/12 11:13:44;;;;;;;7.80;3.85;;;29.00;99.90;;;;;;4972561;28;20283;-95
2022/07/12 11:16:11;;;;;;;5.82;4.57;;;28.30;99.90;;;;;;5003267;28;20195;-94
2022/07/12 11:18:38;;;;;;;4.18;3.65;;;28.60;99.90;;;;;;4987201;28;20319;-93
2022/07/12 11:21:05;;;;;;;8.57;3.92;;;28.50;99.90;;;;;;4988212;28;20330;-90
2022/07/12 11:23:31;;;;;;;4.18;3.28;;;28.80;99.90;;;;;;5002104;28;20219;-90
2022/07/12 11:25:58;;;;;;;4.65;3.63;;;28.90;99.90;;;;;;4987259;28;20239;-91
2022/07/12 11:28:25;;;;;;;4.65;3.10;;;28.70;99.90;;;;;;4987102;28;20192;-90
2022/07/12 11:30:52;;;;;;;3.53;2.20;;;28.80;99.90;;;;;;5002710;28;20215;-92
2022/07/12 11:33:24;;;;;;;2.92;2.65;;;28.60;99.90;;;;;;4987427;28;20219;-91
2022/07/12 11:35:51;;;;;;;3.90;3.42;;;29.30;99.90;;;;;;4987788;28;20767;-93
2022/07/12 11:38:25;;;;;;;4.97;3.58;;;29.50;99.90;;;;;;4986878;28;20587;-92
2022/07/12 11:40:57;;;;;;;5.35;3.38;;;29.20;99.90;;;;;;5002137;28;20216;-90
2022/07/12 11:43:24;;;;;;;3.92;3.13;;;29.30;99.90;;;;;;4986639;28;20196;-92
2022/07/12 11:45:49;;;;;;;3.80;2.58;;;28.80;99.90;;;;;;4970375;28;20366;-87
2022/07/12 11:48:15;;;;;;;4.00;2.47;;;29.20;99.90;;;;;;4966491;28;20748;-88
2022/07/12 11:50:45;;;;;;;5.28;2.80;;;29.30;99.90;;;;;;4993811;28;20260;-91
2022/07/12 11:53:25;;;;;;;5.40;3.15;;;29.20;99.90;;;;;;4977574;28;20225;-86
2022/07/12 11:55:53;;;;;;;4.43;2.92;;;29.00;99.90;;;;;;5001313;28;20243;-92
2022/07/12 11:58:19;;;;;;;3.00;2.30;;;29.40;99.90;;;;;;4986493;28;20662;-90
2022/07/12 12:00:46;;;;;;;3.58;2.90;;;29.20;99.90;;;;;;4988144;28;20191;-90
2022/07/12 12:03:18;;;;;;;3.67;2.60;;;29.20;99.90;;;;;;4986072;28;20234;-90
2022/07/12 12:05:48;;;;;;;3.38;2.72;;;29.60;99.90;;;;;;5002554;28;20259;-89
2022/07/12 12:08:15;;;;;;;4.72;2.63;;;29.40;99.90;;;;;;4986838;28;21143;-88
2022/07/12 12:11:02;;;;;;;4.53;2.70;;;29.30;99.90;;;;;;4985388;28;20219;-89
2022/07/12 12:13:29;;;;;;;4.35;2.92;;;29.60;99.90;;;;;;4971991;28;20184;-88
2022/07/12 12:15:57;;;;;;;1.92;1.83;;;29.20;99.90;;;;;;4987212;28;20243;-91
2022/07/12 12:18:39;;;;;;;5.43;3.03;;;29.20;99.90;;;;;;4985387;28;21224;-91
2022/07/12 12:21:10;;;;;;;3.38;2.75;;;29.10;99.90;;;;;;4985980;28;20583;-89
2022/07/12 12:23:37;;;;;;;4.10;2.80;;;29.00;99.90;;;;;;4986614;28;20216;-91
2022/07/12 12:26:15;;;;;;;4.05;2.50;;;28.70;99.90;;;;;;5001767;28;20596;-90
2022/07/12 12:28:51;;;;;;;3.58;2.05;;;28.60;99.90;;;;;;4986220;28;20226;-92
2022/07/12 12:31:21;;;;;;;3.28;2.65;;;29.10;99.90;;;;;;4979400;28;20215;-89
2022/07/12 12:33:49;;;;;;;5.00;3.38;;;29.10;99.90;;;;;;4987325;28;20199;-90
2022/07/12 12:36:50;;;;;;;5.07;3.45;;;29.00;99.90;;;;;;5003672;28;20224;-93
2022/07/12 12:39:30;;;;;;;6.13;3.15;;;28.60;99.90;;;;;;4975922;28;20219;-93
2022/07/12 12:41:56;;;;;;;4.88;4.10;;;28.40;99.90;;;;;;4948628;28;20224;-95
2022/07/12 12:44:23;;;;;;;6.30;4.38;;;28.20;99.90;;;;;;4938608;28;20223;-95
2022/07/12 12:47:30;;;;;;;5.75;3.70;;;28.20;99.90;;;;;;4989525;28;20232;-96
2022/07/12 12:49:47;;;;;;;10.20;4.25;;;28.10;99.90;;;;;;4975323;28;20242;-95
2022/07/12 12:52:15;;;;;;;6.18;4.50;;;28.10;99.90;;;;;;4987270;28;20556;-96
2022/07/12 12:54:41;;;;;;;7.07;5.43;;;27.90;99.90;;;;;;4988469;28;20323;-92
2022/07/12 12:57:08;;;;;;;9.60;6.60;;;27.70;99.90;;;;;;4989396;28;20351;-90
2022/07/12 12:59:35;;;;;;;10.23;6.30;;;27.70;99.90;;;;;;4988107;28;20591;-93
2022/07/12 13:02:02;;;;;;;12.88;6.22;;;27.40;99.90;;;;;;4975488;28;20230;-94
2022/07/12 13:04:30;;;;;;;9.43;5.72;;;27.30;99.90;;;;;;5006161;28;20227;-94
2022/07/12 13:06:56;;;;;;;8.93;6.68;;;27.50;99.90;;;;;;4991240;28;20222;-92